Main page
METAR-TAF:

METAR-TAF

Airports :

Beijing Capital International Airport

Beijing, China

latitude: 39-56N, longitude: 116-17E, elevation: 55 m

Current weather observation

The report was made 26 minutes ago, at 23:00 UTC
Wind 4 kt from the North/Northeast, varying between North and East/Northeast
Temperature -1°C
Humidity 24%
Pressure 1019 hPa
Visibility 10 km or more
no clouds below 1500 m and no cumulonimbus

METAR: ZBAA 212300Z 02002MPS 350V060 CAVOK M01/M19 Q1019 NOSIG

Time: 07:26 (23:26 UTC)

Forecast

The report was made 8 hours and 6 minutes ago, at 15:20 UTC
Forecast valid from 21 at 18 UTC to 22 at 18 UTC
Wind 8 kt from the Northwest
Visibility 10 km or more
no clouds below 1500 m and no cumulonimbus

TAF: ZBAA 211520Z 2118/2218 32004MPS CAVOK TX09/2207Z TNM03/21Z

Weather observations and forecasts of more than 4000 airports (METAR and TAF reports).

The available stations are represented by yellow and red dots on the map.

Hover mouse over dot to see the name of the station.

Then click to see weather observations and forecasts.

To change the map : click on the green buttons with a black cross to zoom in, on the green button with a dash to zoom out, or on the green arrows for adjacent maps.


METAR-TAF: